createdAt,value
2023-08-23T00:03:29.186Z,100.00
2023-08-23T00:07:32.161Z,100.00
2023-08-23T00:11:36.519Z,100.00
2023-08-23T00:15:43.252Z,100.00
2023-08-23T00:19:47.324Z,100.00
2023-08-23T00:23:50.228Z,100.00
2023-08-23T00:28:11.503Z,100.00
2023-08-23T00:32:16.611Z,100.00
2023-08-23T00:36:19.607Z,100.00
2023-08-23T00:40:22.600Z,100.00
2023-08-23T00:44:26.871Z,100.00
2023-08-23T00:48:29.999Z,100.00
2023-08-23T00:52:39.573Z,100.00
2023-08-23T00:56:51.225Z,100.00
2023-08-23T01:00:55.689Z,100.00
2023-08-23T01:04:58.612Z,100.00
2023-08-23T01:09:05.538Z,100.00
2023-08-23T01:13:11.414Z,100.00
2023-08-23T01:17:18.033Z,100.00
2023-08-23T01:21:25.236Z,100.00
2023-08-23T01:25:29.618Z,100.00
2023-08-23T01:29:32.577Z,100.00
2023-08-23T01:33:37.043Z,100.00
2023-08-23T01:37:40.890Z,100.00
2023-08-23T01:41:45.365Z,100.00
2023-08-23T01:45:48.363Z,100.00
2023-08-23T01:49:51.353Z,100.00
2023-08-23T01:53:54.291Z,100.00
2023-08-23T01:57:59.086Z,100.00
2023-08-23T02:02:02.072Z,100.00
2023-08-23T02:06:05.110Z,100.00
2023-08-23T02:10:08.820Z,100.00
2023-08-23T02:14:13.075Z,100.00
2023-08-23T02:18:17.811Z,100.00
2023-08-23T02:22:21.099Z,100.00
2023-08-23T02:26:24.020Z,100.00
2023-08-23T02:30:28.397Z,100.00
2023-08-23T02:34:31.376Z,100.00
2023-08-23T02:38:34.316Z,100.00
2023-08-23T02:42:37.239Z,100.00
2023-08-23T02:46:41.727Z,100.00
2023-08-23T02:50:45.473Z,100.00
2023-08-23T02:54:48.411Z,100.00
2023-08-23T02:58:51.352Z,100.00
2023-08-23T03:02:55.657Z,100.00
2023-08-23T03:06:58.575Z,100.00
2023-08-23T03:11:03.421Z,100.00
2023-08-23T03:15:07.076Z,100.00
2023-08-23T03:19:11.495Z,100.00
2023-08-23T03:23:14.508Z,100.00
2023-08-23T03:27:20.125Z,100.00
2023-08-23T03:31:23.858Z,100.00
2023-08-23T03:35:30.205Z,100.00
2023-08-23T03:39:33.190Z,100.00
2023-08-23T03:43:36.076Z,100.00
2023-08-23T03:47:38.995Z,100.00
2023-08-23T03:51:43.298Z,100.00
2023-08-23T03:55:46.323Z,100.00
2023-08-23T03:59:49.252Z,100.00
2023-08-23T04:03:52.305Z,100.00
2023-08-23T04:07:56.709Z,100.00
2023-08-23T04:12:00.008Z,100.00
2023-08-23T04:16:02.952Z,100.00
2023-08-23T04:20:08.226Z,100.00
2023-08-23T04:24:12.789Z,100.00
2023-08-23T04:28:15.776Z,100.00
2023-08-23T04:32:19.503Z,100.00
2023-08-23T04:36:22.446Z,100.00
2023-08-23T04:40:26.722Z,100.00
2023-08-23T04:44:31.835Z,100.00
2023-08-23T04:48:35.099Z,100.00
2023-08-23T04:52:37.999Z,100.00
2023-08-23T04:56:42.305Z,100.00
2023-08-23T05:00:47.104Z,100.00
2023-08-23T05:04:50.220Z,100.00
2023-08-23T05:08:53.174Z,100.00
2023-08-23T05:13:01.926Z,100.00
2023-08-23T05:17:05.142Z,100.00
2023-08-23T05:21:09.827Z,100.00
2023-08-23T05:25:12.864Z,100.00
2023-08-23T05:29:17.152Z,100.00
2023-08-23T05:33:20.150Z,100.00
2023-08-23T05:37:23.274Z,100.00
2023-08-23T05:41:26.642Z,100.00
2023-08-23T05:45:31.436Z,100.00
2023-08-23T05:49:34.350Z,100.00
2023-08-23T05:53:37.251Z,100.00
2023-08-23T05:57:40.254Z,100.00
2023-08-23T06:01:44.574Z,100.00
2023-08-23T06:05:47.499Z,100.00
2023-08-23T06:09:50.423Z,100.00
2023-08-23T06:13:53.368Z,100.00
2023-08-23T06:17:58.163Z,100.00
2023-08-23T06:22:01.324Z,100.00
2023-08-23T06:26:04.850Z,100.00
2023-08-23T06:30:08.826Z,100.00
2023-08-23T06:34:13.163Z,100.00
2023-08-23T06:38:17.162Z,100.00
2023-08-23T06:42:20.097Z,100.00
2023-08-23T06:46:23.137Z,100.00
2023-08-23T06:50:27.633Z,100.00
2023-08-23T06:54:30.668Z,100.00
2023-08-23T06:58:33.858Z,100.00
2023-08-23T07:02:36.932Z,100.00
2023-08-23T07:06:41.325Z,100.00
2023-08-23T07:10:45.370Z,100.00
2023-08-23T07:14:51.349Z,100.00
2023-08-23T07:18:54.412Z,100.00
2023-08-23T07:22:58.734Z,100.00
2023-08-23T07:27:01.677Z,100.00
2023-08-23T07:31:04.712Z,100.00
2023-08-23T07:35:08.786Z,100.00
2023-08-23T07:39:13.076Z,100.00
2023-08-23T07:43:16.181Z,100.00
2023-08-23T07:47:19.085Z,100.00
2023-08-23T07:51:22.093Z,100.00
2023-08-23T07:55:26.358Z,100.00
2023-08-23T07:59:29.305Z,100.00
2023-08-23T08:03:32.299Z,100.00
2023-08-23T08:08:06.574Z,100.00
2023-08-23T08:11:59.468Z,100.00
2023-08-23T08:16:07.539Z,100.00
2023-08-23T08:20:13.377Z,100.00
2023-08-23T08:24:16.594Z,100.00
2023-08-23T08:28:20.857Z,100.00
2023-08-23T08:32:23.897Z,100.00
2023-08-23T08:36:26.828Z,100.00
2023-08-23T08:40:30.596Z,100.00
2023-08-23T08:44:34.867Z,100.00
2023-08-23T08:48:37.796Z,100.00
2023-08-23T08:52:42.559Z,100.00
2023-08-23T08:56:47.676Z,100.00
2023-08-23T09:00:54.203Z,100.00
2023-08-23T09:04:57.562Z,100.00
2023-08-23T09:09:00.896Z,100.00
2023-08-23T09:13:04.351Z,100.00
2023-08-23T09:17:09.858Z,100.00
2023-08-23T09:21:13.679Z,100.00
2023-08-23T09:25:16.661Z,100.00
2023-08-23T09:29:20.123Z,100.00
2023-08-23T09:33:25.026Z,100.00
2023-08-23T09:37:29.269Z,100.00
2023-08-23T09:41:32.536Z,100.00
2023-08-23T09:45:36.008Z,100.00
2023-08-23T09:49:42.478Z,100.00
2023-08-23T09:53:49.530Z,100.00
2023-08-23T09:57:53.762Z,100.00
2023-08-23T10:01:57.502Z,100.00
2023-08-23T10:06:02.040Z,100.00
2023-08-23T10:10:07.546Z,94.40
2023-08-23T10:14:11.376Z,100.00
2023-08-23T10:18:15.812Z,100.00
2023-08-23T10:22:20.371Z,100.00
2023-08-23T10:26:24.281Z,100.00
2023-08-23T10:30:27.920Z,100.00
2023-08-23T10:34:31.028Z,100.00
2023-08-23T10:38:36.021Z,100.00
2023-08-23T10:42:38.958Z,100.00
2023-08-23T10:46:45.994Z,100.00
2023-08-23T10:50:49.347Z,100.00
2023-08-23T10:54:53.967Z,100.00
2023-08-23T10:58:56.862Z,100.00
2023-08-23T11:03:01.625Z,100.00
2023-08-23T11:07:04.885Z,96.63
2023-08-23T11:11:09.198Z,99.35
2023-08-23T11:15:12.526Z,100.00
2023-08-23T11:19:15.494Z,95.13
2023-08-23T11:23:18.411Z,87.39
2023-08-23T11:27:22.707Z,78.88
2023-08-23T11:31:25.734Z,78.97
2023-08-23T11:35:29.063Z,87.71
2023-08-23T11:39:31.987Z,90.76
2023-08-23T11:43:36.365Z,73.72
2023-08-23T11:47:39.321Z,80.36
2023-08-23T11:51:45.326Z,74.00
2023-08-23T11:55:50.374Z,73.10
2023-08-23T11:59:55.141Z,98.95
2023-08-23T12:03:58.198Z,96.57
2023-08-23T12:08:01.508Z,88.71
2023-08-23T12:12:04.868Z,80.86
2023-08-23T12:16:09.321Z,83.44
2023-08-23T12:20:12.669Z,78.29
2023-08-23T12:24:15.616Z,83.14
2023-08-23T12:28:19.063Z,83.07
2023-08-23T12:32:23.413Z,84.30
2023-08-23T12:36:27.133Z,78.28
2023-08-23T12:40:30.098Z,61.89
2023-08-23T12:44:34.283Z,63.08
2023-08-23T12:48:38.662Z,63.76
2023-08-23T12:52:41.638Z,67.53
2023-08-23T12:56:44.788Z,62.04
2023-08-23T13:00:47.756Z,65.12
2023-08-23T13:04:52.207Z,61.58
2023-08-23T13:08:55.117Z,64.68
2023-08-23T13:12:58.059Z,58.36
2023-08-23T13:17:01.046Z,66.06
2023-08-23T13:21:07.960Z,54.93
2023-08-23T13:25:11.625Z,50.98
2023-08-23T13:29:14.555Z,51.68
2023-08-23T13:33:17.515Z,51.66
2023-08-23T13:37:21.824Z,52.32
2023-08-23T13:41:25.545Z,53.18
2023-08-23T13:45:28.710Z,51.28
2023-08-23T13:49:31.733Z,52.12
2023-08-23T13:53:36.027Z,53.34
2023-08-23T13:57:39.011Z,54.52
2023-08-23T14:01:42.259Z,56.99
2023-08-23T14:05:45.248Z,55.85
2023-08-23T14:09:49.536Z,61.22
2023-08-23T14:13:52.813Z,62.04
2023-08-23T14:17:55.936Z,63.83
2023-08-23T14:21:58.915Z,60.39
2023-08-23T14:26:05.266Z,52.79
2023-08-23T14:30:09.335Z,56.27
2023-08-23T14:34:12.532Z,54.33
2023-08-23T14:38:15.620Z,53.92
2023-08-23T14:42:19.895Z,49.05
2023-08-23T14:46:23.007Z,47.75
2023-08-23T14:50:27.128Z,47.55
2023-08-23T14:54:30.249Z,44.74
2023-08-23T14:58:34.634Z,55.18
2023-08-23T15:02:37.849Z,53.95
2023-08-23T15:06:40.768Z,42.79
2023-08-23T15:10:44.013Z,46.03
2023-08-23T15:14:48.286Z,43.99
2023-08-23T15:18:51.314Z,44.89
2023-08-23T15:22:54.315Z,50.92
2023-08-23T15:26:57.250Z,43.69
2023-08-23T15:31:04.304Z,42.05
2023-08-23T15:35:07.750Z,45.71
2023-08-23T15:39:10.751Z,46.99
2023-08-23T15:43:13.678Z,48.21
2023-08-23T15:47:19.055Z,47.47
2023-08-23T15:51:22.208Z,46.59
2023-08-23T15:55:26.800Z,45.76
2023-08-23T15:59:30.453Z,44.83
2023-08-23T16:03:34.769Z,42.76
2023-08-23T16:07:37.862Z,44.00
2023-08-23T16:11:40.751Z,44.53
2023-08-23T16:15:43.866Z,44.78
2023-08-23T16:19:48.206Z,48.91
2023-08-23T16:23:51.132Z,46.57
2023-08-23T16:27:54.166Z,48.94
2023-08-23T16:31:57.359Z,48.82
2023-08-23T16:36:01.672Z,45.16
2023-08-23T16:40:04.904Z,46.27
2023-08-23T16:44:07.927Z,46.77
2023-08-23T16:48:11.089Z,46.72
2023-08-23T16:52:15.802Z,46.53
2023-08-23T16:56:18.806Z,46.42
2023-08-23T17:00:22.004Z,46.32
2023-08-23T17:04:24.986Z,45.68
2023-08-23T17:08:29.271Z,48.66
2023-08-23T17:12:32.207Z,48.71
2023-08-23T17:16:36.192Z,48.78
2023-08-23T17:20:39.234Z,48.92
2023-08-23T17:24:43.681Z,50.43
2023-08-23T17:28:46.793Z,50.08
2023-08-23T17:32:49.909Z,52.44
2023-08-23T17:36:53.685Z,53.96
2023-08-23T17:40:57.994Z,56.37
2023-08-23T17:45:04.594Z,55.74
2023-08-23T17:49:08.251Z,56.29
2023-08-23T17:53:11.270Z,54.53
2023-08-23T17:57:15.509Z,76.89
2023-08-23T18:01:21.308Z,69.81
2023-08-23T18:05:24.512Z,65.96
2023-08-23T18:09:27.623Z,74.76
2023-08-23T18:13:32.055Z,100.00
2023-08-23T18:17:35.072Z,100.00
2023-08-23T18:21:38.342Z,100.00
2023-08-23T18:25:41.913Z,100.00
2023-08-23T18:29:46.218Z,100.00
2023-08-23T18:33:49.221Z,100.00
2023-08-23T18:37:52.441Z,100.00
2023-08-23T18:41:55.361Z,100.00
2023-08-23T18:45:59.691Z,100.00
2023-08-23T18:50:02.933Z,100.00
2023-08-23T18:54:06.292Z,100.00
2023-08-23T18:58:09.186Z,100.00
2023-08-23T19:02:13.458Z,100.00
2023-08-23T19:06:16.394Z,100.00
2023-08-23T19:10:19.527Z,100.00
2023-08-23T19:14:22.578Z,100.00
2023-08-23T19:18:27.105Z,100.00
2023-08-23T19:22:30.153Z,100.00
2023-08-23T19:26:33.278Z,100.00
2023-08-23T19:30:36.233Z,100.00
2023-08-23T19:34:40.569Z,100.00
2023-08-23T19:38:43.495Z,100.00
2023-08-23T19:42:46.497Z,100.00
2023-08-23T19:46:49.504Z,100.00
2023-08-23T19:50:53.830Z,100.00
2023-08-23T19:54:56.969Z,100.00
2023-08-23T19:59:00.104Z,100.00
2023-08-23T20:03:03.352Z,100.00
2023-08-23T20:07:07.792Z,100.00
2023-08-23T20:11:10.788Z,100.00
2023-08-23T20:15:13.999Z,100.00
2023-08-23T20:19:16.908Z,100.00
2023-08-23T20:23:21.461Z,100.00
2023-08-23T20:27:24.630Z,100.00
2023-08-23T20:31:27.836Z,100.00
2023-08-23T20:35:31.008Z,100.00
2023-08-23T20:39:36.001Z,100.00
2023-08-23T20:43:39.282Z,100.00
2023-08-23T20:47:42.242Z,100.00
2023-08-23T20:51:45.220Z,100.00
2023-08-23T20:55:50.911Z,100.00
2023-08-23T20:59:54.219Z,100.00
2023-08-23T21:03:57.163Z,100.00
2023-08-23T21:08:00.277Z,100.00
2023-08-23T21:12:05.772Z,100.00
2023-08-23T21:16:08.710Z,100.00
2023-08-23T21:20:11.973Z,100.00
2023-08-23T21:24:14.885Z,100.00
2023-08-23T21:28:19.170Z,100.00
2023-08-23T21:32:22.117Z,100.00
2023-08-23T21:36:25.169Z,100.00
2023-08-23T21:40:28.091Z,100.00
2023-08-23T21:44:32.431Z,100.00
2023-08-23T21:48:35.584Z,100.00
2023-08-23T21:52:38.515Z,100.00
2023-08-23T21:56:41.454Z,100.00
2023-08-23T22:00:45.760Z,100.00
2023-08-23T22:04:48.802Z,100.00
2023-08-23T22:08:51.800Z,100.00
2023-08-23T22:12:54.663Z,100.00
2023-08-23T22:16:59.081Z,100.00
2023-08-23T22:21:05.757Z,100.00
2023-08-23T22:25:09.087Z,100.00
2023-08-23T22:29:12.076Z,100.00
2023-08-23T22:33:16.357Z,100.00
2023-08-23T22:37:19.284Z,100.00
2023-08-23T22:41:22.183Z,100.00
2023-08-23T22:45:25.247Z,100.00
2023-08-23T22:49:30.609Z,100.00
2023-08-23T22:53:33.523Z,100.00
2023-08-23T22:57:36.529Z,100.00
2023-08-23T23:01:39.537Z,100.00
2023-08-23T23:05:43.818Z,100.00
2023-08-23T23:09:46.882Z,100.00
2023-08-23T23:13:49.890Z,100.00
2023-08-23T23:17:53.044Z,100.00
2023-08-23T23:21:57.536Z,100.00
2023-08-23T23:26:00.425Z,100.00
2023-08-23T23:30:03.446Z,100.00
2023-08-23T23:34:06.701Z,100.00
2023-08-23T23:38:11.003Z,100.00
2023-08-23T23:42:13.994Z,100.00
2023-08-23T23:46:18.541Z,100.00
2023-08-23T23:50:21.628Z,100.00
2023-08-23T23:54:25.846Z,100.00
2023-08-23T23:58:28.860Z,100.00
